Eminence, Indiana
Current Conditions -  °F | °C
As of 3:35 PM on Thursday 29 Jan 2015 (Local Time) from K4I7 Reporting Station
Overcast Overcast  
Wind Chill: 25°   Ceiling: 1300
Heat Index: 34°   Visibility: 7mi
Dew Point: 28°   Wind: 13mph
Humidity: 81%   Direction: 290°WNW
Pressure: 30.02"   Gusts: 17mph
Location:  39.52°N, 86.64°W
Report Text: K4I7 292035Z AUTO 29011G15KT 7SM OVC013 01/M02 A3002 RMK AO2
Loading
Personal Weather Stations






























Interactive Weather Map New forecast layout! Learn more

10-Day Weather Forecast

Advertisements
Track Severe Weather on mobile